Time;durP1;ratioP1;P1;durP2;ratioP2;P2;SDS_P1;SDS_P2;PMS_P1;PMS_P2;Temp;Humidity;BMP_temperature;BMP_pressure;BME280_temperature;BME280_humidity;BME280_pressure;Samples;Min_cycle;Max_cycle;Signal;HPM_P1;HPM_P2
2023/02/08 00:01:55;;;;;;;24.73;14.27;;;0.30;99.90;;;;;;5137246;28;20495;-59
2023/02/08 00:04:22;;;;;;;35.33;17.10;;;0.30;99.90;;;;;;5137688;28;20445;-58
2023/02/08 00:06:50;;;;;;;30.43;14.27;;;0.30;99.90;;;;;;5137505;28;20417;-60
2023/02/08 00:09:17;;;;;;;31.50;15.63;;;0.30;99.90;;;;;;5137731;28;20480;-62
2023/02/08 00:11:44;;;;;;;25.73;12.93;;;0.20;99.90;;;;;;5137614;28;20437;-59
2023/02/08 00:14:12;;;;;;;28.03;14.40;;;0.20;99.90;;;;;;5137702;28;20440;-56
2023/02/08 00:16:40;;;;;;;25.20;12.90;;;0.20;99.90;;;;;;5137385;28;20446;-57
2023/02/08 00:19:06;;;;;;;24.47;14.50;;;0.20;99.90;;;;;;5137923;28;20468;-56
2023/02/08 00:21:33;;;;;;;28.23;15.30;;;0.20;99.90;;;;;;5137396;28;20460;-59
2023/02/08 00:24:00;;;;;;;25.77;14.13;;;0.20;99.90;;;;;;5138467;28;20429;-58
2023/02/08 00:26:29;;;;;;;30.27;14.30;;;0.20;99.90;;;;;;5137039;28;20464;-57
2023/02/08 00:28:56;;;;;;;21.90;14.77;;;0.20;99.90;;;;;;5137550;28;20463;-56
2023/02/08 00:31:24;;;;;;;24.33;13.47;;;0.20;99.90;;;;;;5137793;28;20444;-56
2023/02/08 00:33:51;;;;;;;27.80;13.00;;;0.20;99.90;;;;;;5137563;28;20440;-60
2023/02/08 00:36:18;;;;;;;24.30;13.53;;;0.20;99.90;;;;;;5137245;28;20447;-55
2023/02/08 00:38:46;;;;;;;34.70;16.00;;;0.20;99.90;;;;;;5137825;28;20425;-55
2023/02/08 00:41:15;;;;;;;29.40;14.00;;;0.20;99.90;;;;;;5137524;28;20506;-55
2023/02/08 00:43:42;;;;;;;31.73;14.20;;;0.20;99.90;;;;;;5137331;28;20454;-56
2023/02/08 00:46:09;;;;;;;28.67;13.70;;;0.20;99.90;;;;;;5141216;28;20425;-54
2023/02/08 00:48:37;;;;;;;20.83;13.77;;;0.20;99.90;;;;;;5141341;28;20460;-58
2023/02/08 00:51:06;;;;;;;26.83;12.53;;;0.20;99.90;;;;;;5140891;28;20436;-57
2023/02/08 00:53:35;;;;;;;27.57;13.00;;;0.20;99.90;;;;;;5140849;28;20464;-60
2023/02/08 00:56:06;;;;;;;18.90;12.93;;;0.20;99.90;;;;;;5141016;28;20436;-58
2023/02/08 00:58:33;;;;;;;19.73;13.70;;;0.20;99.90;;;;;;5140668;28;20424;-58
2023/02/08 01:01:03;;;;;;;23.47;11.80;;;0.20;99.90;;;;;;5140949;28;20464;-57
2023/02/08 01:03:30;;;;;;;21.33;13.00;;;0.20;99.90;;;;;;5140884;28;20416;-57
2023/02/08 01:06:02;;;;;;;23.27;12.50;;;0.10;99.90;;;;;;5141534;28;20452;-55
2023/02/08 01:08:29;;;;;;;24.67;12.60;;;0.10;99.90;;;;;;5140902;28;20459;-57
2023/02/08 01:11:03;;;;;;;35.03;13.80;;;0.10;99.90;;;;;;5140045;28;20463;-61
2023/02/08 01:13:33;;;;;;;24.60;14.10;;;0.10;99.90;;;;;;5140063;28;20424;-56
2023/02/08 01:16:18;;;;;;;25.97;13.50;;;0.00;99.90;;;;;;5140530;28;20471;-56
2023/02/08 01:18:51;;;;;;;27.43;13.90;;;0.00;99.90;;;;;;5140415;28;20420;-60
2023/02/08 01:21:30;;;;;;;30.53;13.70;;;-0.10;99.90;;;;;;5139892;28;20800;-60
2023/02/08 01:23:57;;;;;;;22.03;13.30;;;-0.10;99.90;;;;;;5140296;28;20408;-57
2023/02/08 01:26:25;;;;;;;17.73;12.37;;;-0.20;99.90;;;;;;5141010;28;20432;-61
2023/02/08 01:28:53;;;;;;;24.80;14.20;;;-0.20;99.90;;;;;;5140488;28;20421;-61
2023/02/08 01:31:22;;;;;;;28.90;12.07;;;-0.20;99.90;;;;;;5139751;28;20448;-61
2023/02/08 01:33:51;;;;;;;24.10;12.63;;;-0.10;99.90;;;;;;5139869;28;20480;-58
2023/02/08 01:36:19;;;;;;;22.73;13.30;;;-0.10;99.90;;;;;;5140073;28;20437;-57
2023/02/08 01:38:48;;;;;;;28.50;14.17;;;-0.10;99.90;;;;;;5140354;28;20453;-54
2023/02/08 01:41:21;;;;;;;26.97;16.13;;;-0.10;99.90;;;;;;5141159;28;20472;-57
2023/02/08 01:44:33;;;;;;;22.47;12.00;;;-0.10;99.90;;;;;;5140658;28;20468;-59
2023/02/08 01:47:00;;;;;;;22.83;11.83;;;-0.10;99.90;;;;;;5113529;28;20435;-56
2023/02/08 01:49:29;;;;;;;17.30;11.07;;;-0.20;99.90;;;;;;5140775;28;20444;-56
2023/02/08 01:52:02;;;;;;;18.03;12.47;;;-0.20;99.90;;;;;;5140732;28;20452;-61
2023/02/08 01:54:32;;;;;;;24.37;10.90;;;-0.30;99.90;;;;;;5140762;28;20472;-56
2023/02/08 01:57:01;;;;;;;15.30;9.53;;;-0.30;99.90;;;;;;5140236;28;20444;-54
2023/02/08 01:59:35;;;;;;;29.93;12.53;;;-0.30;99.90;;;;;;5140260;28;20441;-60
2023/02/08 02:02:04;;;;;;;29.50;13.80;;;-0.30;99.90;;;;;;5140332;28;20536;-54
2023/02/08 02:04:31;;;;;;;22.50;12.67;;;-0.40;99.90;;;;;;5140038;28;20444;-55
2023/02/08 02:07:00;;;;;;;23.60;14.00;;;-0.40;99.90;;;;;;5139246;28;20484;-58
2023/02/08 02:09:35;;;;;;;25.43;11.03;;;-0.30;99.90;;;;;;5139587;28;20433;-59
2023/02/08 02:12:05;;;;;;;14.80;9.67;;;-0.40;99.90;;;;;;5138477;28;20487;-58
2023/02/08 02:14:31;;;;;;;19.33;10.80;;;-0.40;99.90;;;;;;5138391;28;20456;-60
2023/02/08 02:17:00;;;;;;;19.80;12.33;;;-0.40;99.90;;;;;;5139275;28;20455;-58
2023/02/08 02:19:36;;;;;;;20.57;9.37;;;-0.50;99.90;;;;;;5139220;28;20497;-55
2023/02/08 02:22:16;;;;;;;21.40;10.53;;;-0.40;99.90;;;;;;5139437;28;20484;-58
2023/02/08 02:25:05;;;;;;;23.63;11.80;;;-0.40;99.90;;;;;;5139201;28;20404;-60
2023/02/08 02:28:06;;;;;;;24.37;11.20;;;-0.50;99.90;;;;;;5139036;28;20420;-57
2023/02/08 02:30:52;;;;;;;22.80;14.80;;;-0.50;99.90;;;;;;5138686;28;20426;-57
2023/02/08 02:33:39;;;;;;;19.70;11.30;;;-0.50;99.90;;;;;;5139387;28;20513;-53
2023/02/08 02:36:16;;;;;;;18.90;11.63;;;-0.50;99.90;;;;;;5138833;28;20412;-56
2023/02/08 02:39:02;;;;;;;19.27;10.20;;;-0.50;99.90;;;;;;5138530;28;20405;-56
2023/02/08 02:44:31;;;;;;;16.10;11.20;;;-0.50;99.90;;;;;;5139343;28;20440;-58
2023/02/08 02:47:03;;;;;;;18.63;11.33;;;-0.50;99.90;;;;;;5139536;28;20432;-60
2023/02/08 02:49:36;;;;;;;17.40;10.30;;;-0.60;99.90;;;;;;5138695;28;20429;-56
2023/02/08 02:52:08;;;;;;;20.70;11.80;;;-0.60;99.90;;;;;;5139061;28;20421;-53
2023/02/08 02:54:40;;;;;;;19.40;10.30;;;-0.60;99.90;;;;;;5139425;28;20448;-60
2023/02/08 02:57:14;;;;;;;17.57;9.90;;;-0.60;99.90;;;;;;5138970;28;20452;-56
2023/02/08 02:59:45;;;;;;;19.93;10.30;;;-0.70;99.90;;;;;;5139146;28;20422;-54
2023/02/08 03:02:13;;;;;;;15.10;9.80;;;-0.70;99.90;;;;;;5138985;28;20476;-61
2023/02/08 03:04:53;;;;;;;19.57;9.63;;;-0.70;99.90;;;;;;5139393;28;20432;-53
2023/02/08 03:07:39;;;;;;;16.03;9.70;;;-0.80;99.90;;;;;;5138885;28;20471;-60
2023/02/08 03:10:21;;;;;;;22.13;12.63;;;-0.80;99.90;;;;;;5139438;28;20436;-58
2023/02/08 03:12:55;;;;;;;14.37;10.13;;;-0.90;99.90;;;;;;5139196;28;20492;-60
2023/02/08 03:15:32;;;;;;;20.10;12.47;;;-0.90;99.90;;;;;;5139580;28;20431;-60
2023/02/08 03:18:12;;;;;;;16.97;9.77;;;-0.90;99.90;;;;;;5139485;28;20467;-60
2023/02/08 03:20:47;;;;;;;22.53;11.60;;;-0.90;99.90;;;;;;5139197;28;20451;-64
2023/02/08 03:23:19;;;;;;;14.97;11.50;;;-1.00;99.90;;;;;;5138799;28;20475;-54
2023/02/08 03:25:51;;;;;;;19.37;9.90;;;-1.00;99.90;;;;;;5139420;28;20416;-58
2023/02/08 03:28:24;;;;;;;15.00;8.30;;;-0.90;99.90;;;;;;5138956;28;20484;-61
2023/02/08 03:30:58;;;;;;;28.00;11.10;;;-1.00;99.90;;;;;;5138863;28;20428;-58
2023/02/08 03:33:32;;;;;;;23.77;11.50;;;-0.90;99.90;;;;;;5138948;28;20452;-56
2023/02/08 03:36:04;;;;;;;24.53;11.70;;;-0.90;99.90;;;;;;5138952;28;20467;-57
2023/02/08 03:38:36;;;;;;;18.40;10.30;;;-0.90;99.90;;;;;;5138889;28;20444;-56
2023/02/08 03:41:06;;;;;;;16.07;8.20;;;-0.90;99.90;;;;;;5138570;28;20465;-59
2023/02/08 03:43:37;;;;;;;19.97;10.60;;;-0.90;99.90;;;;;;5138761;28;20413;-56
2023/02/08 03:46:11;;;;;;;17.50;10.83;;;-1.00;99.90;;;;;;5138151;28;20456;-60
2023/02/08 03:48:42;;;;;;;23.03;9.73;;;-1.00;99.90;;;;;;5138161;28;20434;-59
2023/02/08 03:51:11;;;;;;;19.27;10.63;;;-1.10;99.90;;;;;;5138144;28;20491;-58
2023/02/08 03:53:41;;;;;;;15.07;8.07;;;-1.10;99.90;;;;;;5137952;28;20416;-56
2023/02/08 03:56:14;;;;;;;10.10;7.00;;;-1.10;99.90;;;;;;5138123;28;20472;-60
2023/02/08 03:58:46;;;;;;;21.90;7.10;;;-1.10;99.90;;;;;;5138251;28;20416;-55
2023/02/08 04:01:17;;;;;;;19.13;9.07;;;-1.10;99.90;;;;;;5138091;28;20944;-59
2023/02/08 04:03:48;;;;;;;15.57;11.03;;;-1.10;99.90;;;;;;5137810;28;20488;-58
2023/02/08 04:06:17;;;;;;;15.70;10.13;;;-1.10;99.90;;;;;;5137899;28;20442;-60
2023/02/08 04:08:44;;;;;;;14.73;8.17;;;-1.20;99.90;;;;;;5138104;28;20476;-58
2023/02/08 04:11:11;;;;;;;15.60;8.70;;;-1.20;99.90;;;;;;5138579;28;20440;-60
2023/02/08 04:13:37;;;;;;;15.13;7.60;;;-1.20;99.90;;;;;;5138432;28;20472;-58
2023/02/08 04:16:05;;;;;;;19.07;8.63;;;-0.80;99.90;;;;;;5138631;28;20435;-56
2023/02/08 04:18:32;;;;;;;15.53;8.90;;;-1.20;99.90;;;;;;5138231;28;20445;-59
2023/02/08 04:21:01;;;;;;;16.07;8.67;;;-1.20;99.90;;;;;;5140964;28;20463;-55
2023/02/08 04:23:29;;;;;;;17.67;8.40;;;-0.90;99.90;;;;;;5141529;28;20479;-58
2023/02/08 04:25:56;;;;;;;20.00;9.47;;;-1.20;99.90;;;;;;5141580;28;20455;-62
2023/02/08 04:28:23;;;;;;;16.77;8.70;;;-1.30;99.90;;;;;;5142012;28;20450;-59
2023/02/08 04:30:50;;;;;;;19.60;10.53;;;-1.30;99.90;;;;;;5141644;28;20472;-59
2023/02/08 04:33:17;;;;;;;20.53;8.87;;;-1.30;99.90;;;;;;5141496;28;20458;-55
2023/02/08 04:35:44;;;;;;;19.23;8.20;;;-1.30;99.90;;;;;;5141321;28;20444;-58
2023/02/08 04:38:10;;;;;;;18.70;8.97;;;-1.20;99.90;;;;;;5141689;28;20476;-59
2023/02/08 04:40:39;;;;;;;23.57;9.57;;;-1.30;99.90;;;;;;5141444;28;20467;-59
2023/02/08 04:43:05;;;;;;;16.83;9.07;;;-1.30;99.90;;;;;;5141451;28;20500;-59
2023/02/08 04:45:32;;;;;;;15.30;10.47;;;-1.30;99.90;;;;;;5141822;28;20474;-57
2023/02/08 04:48:01;;;;;;;14.10;7.70;;;-1.30;99.90;;;;;;5142157;28;20488;-59
2023/02/08 04:50:28;;;;;;;16.73;8.43;;;-1.30;99.90;;;;;;5141537;28;20441;-60
2023/02/08 04:52:55;;;;;;;15.93;9.33;;;-1.20;99.90;;;;;;5141697;28;20499;-54
2023/02/08 04:55:22;;;;;;;13.13;9.17;;;-1.20;99.90;;;;;;5141515;28;20440;-59
2023/02/08 04:57:52;;;;;;;13.43;7.83;;;-1.20;99.90;;;;;;5141410;28;20432;-60
2023/02/08 05:00:19;;;;;;;24.83;9.60;;;-1.20;99.90;;;;;;5141585;28;20453;-60
2023/02/08 05:02:46;;;;;;;14.97;9.17;;;-1.30;99.90;;;;;;5141442;28;20512;-54
2023/02/08 05:05:15;;;;;;;16.67;10.27;;;-1.30;99.90;;;;;;5141072;28;20464;-56
2023/02/08 05:07:42;;;;;;;19.70;7.53;;;-1.30;99.90;;;;;;5141176;28;20464;-62
2023/02/08 05:10:09;;;;;;;23.03;11.10;;;-1.30;99.90;;;;;;5140842;28;20487;-61
2023/02/08 05:12:39;;;;;;;15.87;7.63;;;-1.30;99.90;;;;;;5141182;28;20479;-60
2023/02/08 05:15:08;;;;;;;16.80;7.33;;;-1.30;99.90;;;;;;5140420;28;20475;-58
2023/02/08 05:17:35;;;;;;;17.63;8.03;;;-1.40;99.90;;;;;;5140798;28;20421;-59
2023/02/08 05:20:02;;;;;;;17.50;10.90;;;-1.40;99.90;;;;;;5140818;28;20424;-59
2023/02/08 05:22:29;;;;;;;20.33;10.70;;;-1.40;99.90;;;;;;5141383;27;20488;-57
2023/02/08 05:24:56;;;;;;;14.33;8.67;;;-1.40;99.90;;;;;;5141260;28;20461;-61
2023/02/08 05:27:22;;;;;;;17.60;8.60;;;-1.50;99.90;;;;;;5141101;28;20472;-62
2023/02/08 05:29:51;;;;;;;17.13;11.90;;;-1.50;99.90;;;;;;5140704;28;20471;-61
2023/02/08 05:32:19;;;;;;;18.07;9.37;;;-1.50;99.90;;;;;;5141143;28;20476;-61
2023/02/08 05:34:46;;;;;;;21.77;9.30;;;-1.50;99.90;;;;;;5140898;28;20433;-59
2023/02/08 05:37:13;;;;;;;19.30;9.37;;;-1.50;99.90;;;;;;5141036;28;20433;-60
2023/02/08 05:39:40;;;;;;;18.00;8.97;;;-1.60;99.90;;;;;;5140536;28;20433;-57
2023/02/08 05:42:07;;;;;;;14.73;10.13;;;-1.50;99.90;;;;;;5141024;28;20540;-60
2023/02/08 05:44:34;;;;;;;13.13;8.47;;;-1.50;99.90;;;;;;5140730;28;20425;-59
2023/02/08 05:47:02;;;;;;;14.90;9.10;;;-1.50;99.90;;;;;;5141277;28;20468;-58
2023/02/08 05:49:31;;;;;;;20.33;9.50;;;-1.60;99.90;;;;;;5141185;28;20447;-61
2023/02/08 05:51:57;;;;;;;16.37;9.00;;;-1.60;99.90;;;;;;5141022;28;20508;-59
2023/02/08 05:54:26;;;;;;;24.67;12.93;;;-1.70;99.90;;;;;;5140893;28;20455;-58
2023/02/08 05:56:53;;;;;;;18.97;10.07;;;-1.70;99.90;;;;;;5140683;28;20436;-62
2023/02/08 05:59:20;;;;;;;20.03;10.13;;;-1.70;99.90;;;;;;5140140;28;20440;-60
2023/02/08 06:01:47;;;;;;;21.97;13.00;;;-1.70;99.90;;;;;;5140298;28;20445;-55
2023/02/08 06:04:14;;;;;;;20.60;10.77;;;-1.80;99.90;;;;;;5140295;28;20425;-61
2023/02/08 06:06:42;;;;;;;17.00;11.70;;;-1.70;99.90;;;;;;5140494;28;20467;-57
2023/02/08 06:09:11;;;;;;;26.63;11.47;;;-1.70;99.90;;;;;;5139730;28;20432;-60
2023/02/08 06:11:39;;;;;;;22.20;11.33;;;-1.60;99.90;;;;;;5140229;28;20464;-55
2023/02/08 06:14:06;;;;;;;23.00;10.60;;;-1.70;99.90;;;;;;5139703;28;20433;-60
2023/02/08 06:16:33;;;;;;;22.57;11.60;;;-1.70;99.90;;;;;;5140097;28;20452;-57
2023/02/08 06:19:00;;;;;;;22.73;9.80;;;-1.70;99.90;;;;;;5140392;28;20440;-60
2023/02/08 06:21:27;;;;;;;20.73;11.47;;;-1.70;99.90;;;;;;5139867;28;20459;-59
2023/02/08 06:23:55;;;;;;;12.00;9.50;;;-1.70;99.90;;;;;;5139694;28;20471;-61
2023/02/08 06:26:22;;;;;;;13.63;8.97;;;-1.70;99.90;;;;;;5139599;28;20460;-61
2023/02/08 06:28:51;;;;;;;28.03;10.60;;;-1.70;99.90;;;;;;5140024;28;20448;-57
2023/02/08 06:31:18;;;;;;;22.30;10.63;;;-1.70;99.90;;;;;;5140465;28;20433;-58
2023/02/08 06:33:44;;;;;;;22.80;9.90;;;-1.70;99.90;;;;;;5140366;28;20484;-62
2023/02/08 06:36:11;;;;;;;20.17;10.50;;;-1.70;99.90;;;;;;5139897;28;20456;-58
2023/02/08 06:38:38;;;;;;;20.70;10.37;;;-1.60;99.90;;;;;;5139510;28;20503;-58
2023/02/08 06:41:06;;;;;;;19.77;11.10;;;-1.70;99.90;;;;;;5139202;28;20451;-59
2023/02/08 06:43:33;;;;;;;21.37;11.07;;;-1.70;99.90;;;;;;5138584;28;20472;-59
2023/02/08 06:46:03;;;;;;;13.27;9.83;;;-1.80;99.90;;;;;;5139871;28;20448;-60
2023/02/08 06:48:30;;;;;;;20.13;10.40;;;-1.80;99.90;;;;;;5139772;28;20424;-60
2023/02/08 06:50:57;;;;;;;22.33;10.07;;;-1.70;99.90;;;;;;5140073;28;20437;-62
2023/02/08 06:53:24;;;;;;;18.13;11.70;;;-1.70;99.90;;;;;;5140095;28;20433;-60
2023/02/08 06:55:51;;;;;;;19.30;10.27;;;-1.70;99.90;;;;;;5139526;28;20461;-55
2023/02/08 06:58:20;;;;;;;18.87;9.90;;;-1.80;99.90;;;;;;5139904;28;20417;-58
2023/02/08 07:00:47;;;;;;;20.27;11.53;;;-1.80;99.90;;;;;;5139277;28;20449;-59
2023/02/08 07:03:16;;;;;;;25.40;12.07;;;-1.80;99.90;;;;;;5139011;28;20484;-60
2023/02/08 07:05:45;;;;;;;20.50;12.53;;;-1.70;99.90;;;;;;5139427;28;20444;-60
2023/02/08 07:08:12;;;;;;;19.40;9.53;;;-1.70;99.90;;;;;;5139134;28;20492;-61
2023/02/08 07:10:39;;;;;;;15.43;10.97;;;-1.60;99.90;;;;;;5139588;28;20440;-54
2023/02/08 07:13:06;;;;;;;27.00;12.20;;;-1.60;99.90;;;;;;5138917;28;20420;-59
2023/02/08 07:15:37;;;;;;;19.87;10.27;;;-1.70;99.90;;;;;;5139147;28;20436;-61
2023/02/08 07:18:04;;;;;;;25.40;10.57;;;-1.60;99.90;;;;;;5139190;28;20467;-58
2023/02/08 07:20:31;;;;;;;21.20;8.67;;;-1.60;99.90;;;;;;5138559;28;20444;-60
2023/02/08 07:22:59;;;;;;;15.57;10.10;;;-1.70;99.90;;;;;;5138092;28;20487;-56
2023/02/08 07:25:26;;;;;;;20.90;10.57;;;-1.60;99.90;;;;;;5139278;28;20856;-55
2023/02/08 07:27:54;;;;;;;17.00;10.57;;;-1.60;99.90;;;;;;5138783;28;20491;-59
2023/02/08 07:30:28;;;;;;;32.67;11.33;;;-1.60;99.90;;;;;;5139426;28;20429;-54
2023/02/08 07:32:56;;;;;;;27.43;12.60;;;-1.60;99.90;;;;;;5139546;28;20488;-60
2023/02/08 07:35:23;;;;;;;22.60;11.40;;;-1.50;99.90;;;;;;5139099;28;20417;-59
2023/02/08 07:37:50;;;;;;;22.33;12.30;;;-1.60;99.90;;;;;;5138966;28;20444;-60
2023/02/08 07:40:17;;;;;;;21.80;10.67;;;-1.50;99.90;;;;;;5138998;28;20452;-58
2023/02/08 07:42:44;;;;;;;27.40;11.20;;;-1.50;99.90;;;;;;5138997;28;20456;-59
2023/02/08 07:45:12;;;;;;;21.10;11.20;;;-1.40;99.90;;;;;;5138841;28;20499;-58
2023/02/08 07:47:39;;;;;;;20.90;11.83;;;-1.30;99.90;;;;;;5138932;28;20425;-60
2023/02/08 07:50:08;;;;;;;23.93;11.20;;;-1.30;99.90;;;;;;5138103;28;20555;-60
2023/02/08 07:52:35;;;;;;;20.53;9.87;;;-1.20;99.90;;;;;;5136907;28;20448;-59
2023/02/08 07:55:01;;;;;;;15.63;8.50;;;-1.20;99.90;;;;;;5121283;28;20551;-60
2023/02/08 07:57:28;;;;;;;14.10;9.27;;;-1.10;99.90;;;;;;5119827;28;20454;-59
2023/02/08 07:59:55;;;;;;;22.93;11.33;;;-1.10;99.90;;;;;;5122764;28;20527;-59
2023/02/08 08:02:22;;;;;;;15.70;8.70;;;-1.10;99.90;;;;;;5123086;28;20535;-60
2023/02/08 08:04:49;;;;;;;21.90;11.80;;;-1.00;99.90;;;;;;5122328;28;20468;-61
2023/02/08 08:07:17;;;;;;;20.43;12.30;;;-1.00;99.90;;;;;;5123258;28;20448;-60
2023/02/08 08:09:44;;;;;;;21.40;9.70;;;-0.90;99.90;;;;;;5121730;28;20492;-62
2023/02/08 08:12:11;;;;;;;29.17;14.80;;;-0.90;99.90;;;;;;5122036;28;20850;-62
2023/02/08 08:14:38;;;;;;;15.80;9.63;;;-0.80;99.90;;;;;;5121882;28;20488;-57
2023/02/08 08:17:05;;;;;;;18.43;10.30;;;-0.70;99.90;;;;;;5121632;28;20543;-61
2023/02/08 08:19:32;;;;;;;24.53;9.90;;;-0.70;99.90;;;;;;5121347;28;20478;-56
2023/02/08 08:21:58;;;;;;;17.87;10.27;;;-0.60;99.90;;;;;;5127197;28;20471;-60
2023/02/08 08:24:27;;;;;;;21.40;10.27;;;-0.60;99.90;;;;;;5141596;28;20506;-59
2023/02/08 08:26:54;;;;;;;29.80;13.20;;;-0.60;99.90;;;;;;5141854;28;20405;-61
2023/02/08 08:29:22;;;;;;;19.63;12.50;;;-0.50;99.90;;;;;;5141271;28;20451;-51
2023/02/08 08:31:48;;;;;;;27.43;11.70;;;-0.40;99.90;;;;;;5141350;28;20799;-56
2023/02/08 08:34:17;;;;;;;19.43;10.70;;;-0.40;99.90;;;;;;5141338;28;20424;-56
2023/02/08 08:36:44;;;;;;;20.87;10.47;;;-0.30;99.90;;;;;;5141636;28;20448;-58
2023/02/08 08:39:11;;;;;;;23.70;11.53;;;-0.30;99.90;;;;;;5142159;28;20436;-61
2023/02/08 08:41:39;;;;;;;21.10;10.17;;;-0.30;99.90;;;;;;5141671;28;20426;-62
2023/02/08 08:44:06;;;;;;;24.17;11.07;;;-0.30;99.90;;;;;;5141279;28;20456;-58
2023/02/08 08:46:33;;;;;;;24.80;14.93;;;-0.20;99.90;;;;;;5140997;28;20451;-56
2023/02/08 08:49:00;;;;;;;23.20;12.53;;;-0.20;99.90;;;;;;5139882;28;20444;-60
2023/02/08 08:51:27;;;;;;;20.70;11.17;;;-0.10;99.90;;;;;;5140247;28;20471;-59
2023/02/08 08:53:54;;;;;;;29.30;12.77;;;-0.10;99.90;;;;;;5140813;28;20435;-60
2023/02/08 08:56:21;;;;;;;27.90;13.27;;;0.00;99.90;;;;;;5140218;28;20440;-59
2023/02/08 08:58:49;;;;;;;26.67;13.47;;;0.10;99.90;;;;;;5139550;28;20464;-54
2023/02/08 09:01:18;;;;;;;23.07;12.83;;;0.10;99.90;;;;;;5139908;28;20472;-59
2023/02/08 09:03:45;;;;;;;22.77;12.70;;;0.20;99.90;;;;;;5139828;28;20475;-56
2023/02/08 09:06:17;;;;;;;21.53;11.80;;;0.20;99.90;;;;;;5139081;28;20468;-57
2023/02/08 09:08:44;;;;;;;24.10;12.13;;;0.30;99.90;;;;;;5139852;28;20448;-58
2023/02/08 09:11:14;;;;;;;22.67;14.27;;;0.30;99.90;;;;;;5139461;28;20476;-56
2023/02/08 09:13:42;;;;;;;29.07;14.83;;;0.30;99.90;;;;;;5139465;28;20427;-53
2023/02/08 09:16:12;;;;;;;34.73;14.37;;;0.30;99.90;;;;;;5139485;28;20475;-58
2023/02/08 09:18:39;;;;;;;27.83;15.77;;;0.30;99.90;;;;;;5139472;28;20436;-61
2023/02/08 09:21:07;;;;;;;30.47;15.40;;;0.30;99.90;;;;;;5138694;28;20468;-61
2023/02/08 09:23:34;;;;;;;25.77;13.10;;;0.30;99.90;;;;;;5139222;28;20479;-60
2023/02/08 09:26:02;;;;;;;27.20;15.67;;;0.40;99.90;;;;;;5139260;28;20488;-58
2023/02/08 09:28:29;;;;;;;30.63;13.23;;;0.50;99.90;;;;;;5139742;28;20444;-57
2023/02/08 09:30:56;;;;;;;24.30;13.97;;;0.60;99.90;;;;;;5139480;28;20465;-59
2023/02/08 09:33:24;;;;;;;28.23;14.20;;;0.70;99.90;;;;;;5138832;28;20422;-56
2023/02/08 09:35:51;;;;;;;29.83;14.67;;;0.70;99.90;;;;;;5139320;28;20492;-57
2023/02/08 09:38:18;;;;;;;31.03;14.80;;;0.80;99.90;;;;;;5139916;28;20444;-55
2023/02/08 09:41:01;;;;;;;21.00;12.27;;;0.90;99.90;;;;;;5139339;28;20433;-58
2023/02/08 09:43:35;;;;;;;25.33;14.60;;;1.20;99.90;;;;;;5140016;28;20451;-56
2023/02/08 09:46:08;;;;;;;31.90;14.70;;;1.40;99.90;;;;;;5139746;28;20474;-56
2023/02/08 09:48:46;;;;;;;27.87;16.67;;;1.50;99.90;;;;;;5140342;28;20443;-59
2023/02/08 09:51:25;;;;;;;27.50;15.80;;;1.70;99.90;;;;;;5139723;27;20462;-58
2023/02/08 09:53:56;;;;;;;30.57;16.43;;;2.00;99.90;;;;;;5139328;28;20457;-60
2023/02/08 09:56:29;;;;;;;21.97;13.10;;;3.00;99.90;;;;;;5138797;28;20461;-60
2023/02/08 09:58:57;;;;;;;33.03;17.20;;;4.70;99.90;;;;;;5137322;28;20432;-61
2023/02/08 10:01:26;;;;;;;32.30;13.80;;;6.00;99.90;;;;;;5137482;28;20476;-62
2023/02/08 10:03:59;;;;;;;34.57;16.20;;;7.20;99.90;;;;;;5137833;28;20472;-62
2023/02/08 10:06:26;;;;;;;39.17;18.60;;;8.50;98.00;;;;;;5137460;28;20801;-62
2023/02/08 10:08:53;;;;;;;40.75;20.33;;;9.40;92.30;;;;;;5136408;28;20453;-57
2023/02/08 10:11:35;;;;;;;34.00;19.63;;;10.40;89.60;;;;;;5137057;28;20209;-62
2023/02/08 10:14:21;;;;;;;27.10;16.90;;;10.70;73.50;;;;;;5137126;28;20481;-60
2023/02/08 10:17:00;;;;;;;34.33;18.30;;;11.10;69.20;;;;;;5136603;28;20464;-60
2023/02/08 10:19:45;;;;;;;31.20;16.83;;;11.40;65.70;;;;;;5136903;28;20445;-58
2023/02/08 10:22:24;;;;;;;29.20;16.23;;;11.50;62.30;;;;;;5137576;28;20472;-58
2023/02/08 10:25:11;;;;;;;26.40;15.40;;;11.40;62.00;;;;;;5137757;28;20464;-58
2023/02/08 10:27:57;;;;;;;35.13;17.50;;;11.30;60.60;;;;;;5137538;28;20460;-58
2023/02/08 10:30:34;;;;;;;32.37;19.27;;;11.40;60.60;;;;;;5137269;28;20495;-53
2023/02/08 10:33:07;;;;;;;32.10;17.50;;;11.40;61.00;;;;;;5129338;28;20460;-60
2023/02/08 10:35:37;;;;;;;35.83;18.97;;;11.70;60.30;;;;;;5116233;28;20429;-60
2023/02/08 10:38:24;;;;;;;26.40;15.63;;;11.90;58.40;;;;;;5116011;28;20572;-62
2023/02/08 10:40:55;;;;;;;25.30;15.93;;;11.70;58.00;;;;;;5116769;28;20429;-63
2023/02/08 10:43:31;;;;;;;33.13;16.63;;;11.40;58.20;;;;;;5115822;28;20555;-60
2023/02/08 10:46:04;;;;;;;32.60;18.07;;;11.30;58.60;;;;;;5115967;28;20433;-60
2023/02/08 10:48:43;;;;;;;32.83;17.10;;;11.40;58.30;;;;;;5115937;28;20472;-61
2023/02/08 10:51:13;;;;;;;29.87;16.53;;;11.00;58.40;;;;;;5115856;28;20432;-61
2023/02/08 10:53:40;;;;;;;30.60;16.57;;;10.90;58.80;;;;;;5116105;28;20523;-60
2023/02/08 10:56:12;;;;;;;34.63;16.20;;;11.00;58.80;;;;;;5115672;28;20450;-60
2023/02/08 10:58:39;;;;;;;28.53;14.60;;;10.70;59.20;;;;;;5115944;28;20555;-59
2023/02/08 11:01:08;;;;;;;27.17;16.80;;;10.60;59.30;;;;;;5115894;28;20440;-62
2023/02/08 11:03:38;;;;;;;35.13;16.87;;;10.60;59.60;;;;;;5115313;28;20487;-57
2023/02/08 11:06:05;;;;;;;29.33;16.47;;;10.30;60.20;;;;;;5115832;28;20566;-60
2023/02/08 11:08:53;;;;;;;27.97;14.87;;;10.30;60.50;;;;;;5115394;28;20476;-55
2023/02/08 11:11:20;;;;;;;38.47;17.20;;;9.70;62.60;;;;;;5115845;28;20497;-60
2023/02/08 11:13:50;;;;;;;30.10;17.20;;;9.40;64.90;;;;;;5115391;28;20500;-56
2023/02/08 11:16:22;;;;;;;29.93;16.23;;;9.40;65.00;;;;;;5115414;28;20505;-60
2023/02/08 11:18:52;;;;;;;27.53;15.97;;;9.30;64.70;;;;;;5115640;28;20937;-61
2023/02/08 11:21:25;;;;;;;32.00;15.50;;;8.60;66.00;;;;;;5116294;28;20433;-61
2023/02/08 11:23:54;;;;;;;32.00;16.23;;;8.30;67.80;;;;;;5115268;28;20622;-61
2023/02/08 11:26:24;;;;;;;32.63;18.87;;;8.00;69.40;;;;;;5120572;28;20507;-62
2023/02/08 11:29:02;;;;;;;30.87;16.20;;;7.50;72.10;;;;;;5135228;28;20468;-62
2023/02/08 11:31:30;;;;;;;33.90;17.10;;;6.60;77.30;;;;;;5136181;28;20436;-62
2023/02/08 11:34:03;;;;;;;27.10;13.13;;;6.20;82.60;;;;;;5136385;28;20461;-57
2023/02/08 11:36:32;;;;;;;29.10;13.70;;;5.70;88.90;;;;;;5137167;28;20473;-59
2023/02/08 11:39:04;;;;;;;33.83;16.70;;;5.00;93.30;;;;;;5137382;28;20457;-61
2023/02/08 11:41:31;;;;;;;32.80;17.17;;;4.60;97.20;;;;;;5137360;28;20413;-55
2023/02/08 11:44:02;;;;;;;33.77;15.83;;;4.40;99.80;;;;;;5137204;28;20480;-60
2023/02/08 11:46:33;;;;;;;26.10;15.20;;;4.30;99.90;;;;;;5137121;28;20435;-61
2023/02/08 11:49:02;;;;;;;28.73;15.90;;;4.00;99.90;;;;;;5137476;28;20416;-58
2023/02/08 11:51:33;;;;;;;37.10;16.20;;;3.80;99.90;;;;;;5136553;28;20429;-62
2023/02/08 11:54:00;;;;;;;31.10;15.20;;;3.70;99.90;;;;;;5136617;28;20421;-59
2023/02/08 11:56:30;;;;;;;29.10;14.40;;;3.50;99.90;;;;;;5136525;28;20464;-60
2023/02/08 11:59:01;;;;;;;25.10;13.70;;;3.50;99.90;;;;;;5136936;28;20436;-62
2023/02/08 12:01:29;;;;;;;31.03;16.40;;;3.50;99.90;;;;;;5136549;28;20480;-61
2023/02/08 12:03:59;;;;;;;33.97;15.50;;;3.60;99.90;;;;;;5136887;28;20484;-61
2023/02/08 12:06:54;;;;;;;37.17;18.20;;;3.70;99.90;;;;;;5135964;28;20464;-62
2023/02/08 12:09:35;;;;;;;31.07;17.03;;;3.60;99.90;;;;;;5137052;28;20429;-61
2023/02/08 12:12:13;;;;;;;33.93;14.67;;;3.50;99.90;;;;;;5137095;28;20467;-60
2023/02/08 12:14:55;;;;;;;24.30;12.87;;;3.50;99.90;;;;;;5137203;28;20444;-58
2023/02/08 12:17:43;;;;;;;32.20;16.40;;;3.40;99.90;;;;;;5137540;28;20452;-58
2023/02/08 12:20:33;;;;;;;24.47;13.33;;;3.30;99.90;;;;;;5137739;28;20424;-61
2023/02/08 12:23:26;;;;;;;30.27;15.53;;;3.30;99.90;;;;;;5137178;28;20421;-61
2023/02/08 12:26:01;;;;;;;29.37;15.37;;;3.30;99.90;;;;;;5137472;28;20480;-61
2023/02/08 12:28:46;;;;;;;23.23;13.43;;;3.30;99.90;;;;;;5136726;28;20431;-55
2023/02/08 12:31:22;;;;;;;30.33;14.90;;;3.30;99.90;;;;;;5136738;28;20431;-60
2023/02/08 12:33:58;;;;;;;26.90;14.50;;;3.30;99.90;;;;;;5136724;28;20409;-60
2023/02/08 12:36:39;;;;;;;26.63;14.90;;;3.40;99.90;;;;;;5136455;28;20454;-59
2023/02/08 12:42:37;;;;;;;28.17;15.30;;;3.40;99.90;;;;;;5139074;28;20400;-57
2023/02/08 12:45:33;;;;;;;28.63;15.63;;;3.40;99.90;;;;;;5140081;28;20588;-59
2023/02/08 12:48:13;;;;;;;36.00;15.33;;;3.50;99.90;;;;;;5139644;28;20437;-59
2023/02/08 12:50:48;;;;;;;26.23;13.47;;;3.60;99.90;;;;;;5139945;28;20464;-62
2023/02/08 12:53:24;;;;;;;31.10;13.83;;;3.50;99.90;;;;;;5139858;28;20432;-60
2023/02/08 12:55:52;;;;;;;26.63;15.10;;;3.60;99.90;;;;;;5140193;28;20464;-59
2023/02/08 12:58:29;;;;;;;24.37;14.47;;;3.80;99.90;;;;;;5139138;28;20466;-59